createdAt,value
2022-09-15T00:00:31.476Z,20.13
2022-09-15T00:03:20.790Z,20.14
2022-09-15T00:06:12.372Z,20.14
2022-09-15T00:09:00.774Z,20.16
2022-09-15T00:12:00.117Z,20.13
2022-09-15T00:14:48.432Z,20.10
2022-09-15T00:17:50.699Z,20.09
2022-09-15T00:20:42.049Z,20.13
2022-09-15T00:23:30.326Z,20.07
2022-09-15T00:26:27.478Z,20.09
2022-09-15T00:29:17.153Z,20.12
2022-09-15T00:32:11.545Z,20.15
2022-09-15T00:34:59.925Z,20.09
2022-09-15T00:37:48.247Z,20.07
2022-09-15T00:40:45.489Z,20.07
2022-09-15T00:43:46.845Z,20.08
2022-09-15T00:46:39.622Z,20.06
2022-09-15T00:49:37.574Z,20.16
2022-09-15T00:52:33.428Z,20.14
2022-09-15T00:55:27.632Z,20.18
2022-09-15T00:58:19.855Z,20.20
2022-09-15T01:01:09.819Z,20.22
2022-09-15T01:04:08.891Z,20.19
2022-09-15T01:07:00.677Z,20.21
2022-09-15T01:09:53.851Z,20.17
2022-09-15T01:12:42.911Z,20.17
2022-09-15T01:15:48.115Z,20.21
2022-09-15T01:18:43.937Z,20.21
2022-09-15T01:21:42.874Z,20.22
2022-09-15T01:24:55.381Z,20.22
2022-09-15T01:28:37.309Z,20.15
2022-09-15T01:31:31.441Z,20.14
2022-09-15T01:34:21.229Z,20.18
2022-09-15T01:37:15.898Z,20.21
2022-09-15T01:40:05.146Z,20.25
2022-09-15T01:43:03.211Z,20.27
2022-09-15T01:45:53.121Z,20.28
2022-09-15T01:48:44.549Z,20.30
2022-09-15T01:51:35.443Z,20.33
2022-09-15T01:54:33.852Z,20.37
2022-09-15T01:57:23.095Z,20.35
2022-09-15T02:00:15.305Z,20.30
2022-09-15T02:03:11.815Z,19.28
2022-09-15T02:06:07.387Z,18.37
2022-09-15T02:09:01.523Z,18.41
2022-09-15T02:11:55.450Z,18.30
2022-09-15T02:14:55.471Z,18.72
2022-09-15T02:17:50.662Z,18.89
2022-09-15T02:20:45.247Z,18.77
2022-09-15T02:23:40.176Z,18.79
2022-09-15T02:26:30.482Z,18.82
2022-09-15T02:29:30.152Z,19.24
2022-09-15T02:32:23.265Z,19.32
2022-09-15T02:35:13.387Z,19.50
2022-09-15T02:38:04.379Z,19.70
2022-09-15T02:40:54.294Z,19.82
2022-09-15T02:43:50.336Z,19.89
2022-09-15T02:46:39.279Z,19.98
2022-09-15T02:49:36.587Z,19.95
2022-09-15T02:52:25.497Z,19.98
2022-09-15T02:55:23.278Z,20.01
2022-09-15T02:58:12.941Z,20.08
2022-09-15T03:01:11.188Z,20.13
2022-09-15T03:04:00.297Z,20.14
2022-09-15T03:06:57.436Z,20.13
2022-09-15T03:09:46.207Z,20.16
2022-09-15T03:12:45.608Z,20.12
2022-09-15T03:15:35.633Z,20.06
2022-09-15T03:18:32.146Z,20.08
2022-09-15T03:21:20.727Z,20.16
2022-09-15T03:24:19.343Z,20.07
2022-09-15T03:27:07.606Z,20.03
2022-09-15T03:30:05.834Z,20.06
2022-09-15T03:32:55.512Z,20.10
2022-09-15T03:35:53.375Z,19.91
2022-09-15T03:38:41.942Z,19.84
2022-09-15T03:41:30.346Z,19.73
2022-09-15T03:44:27.894Z,19.81
2022-09-15T03:47:16.295Z,19.80
2022-09-15T03:50:15.010Z,19.88
2022-09-15T03:53:03.307Z,19.68
2022-09-15T03:56:10.766Z,19.76
2022-09-15T03:58:59.182Z,19.67
2022-09-15T04:01:56.368Z,19.46
2022-09-15T04:04:44.707Z,19.54
2022-09-15T04:07:37.629Z,19.21
2022-09-15T04:10:26.056Z,19.05
2022-09-15T04:13:17.432Z,18.93
2022-09-15T04:16:08.231Z,19.07
2022-09-15T04:18:57.604Z,18.95
2022-09-15T04:21:47.521Z,18.96
2022-09-15T04:24:37.369Z,18.81
2022-09-15T04:27:34.454Z,18.91
2022-09-15T04:30:23.009Z,18.62
2022-09-15T04:33:11.352Z,18.79
2022-09-15T04:36:00.367Z,18.85
2022-09-15T04:38:49.048Z,18.77
2022-09-15T04:41:39.383Z,18.89
2022-09-15T04:44:36.775Z,19.03
2022-09-15T04:47:25.122Z,18.66
2022-09-15T04:50:13.571Z,19.10
2022-09-15T04:53:01.861Z,18.78
2022-09-15T04:56:03.465Z,18.22
2022-09-15T04:58:57.274Z,18.47
2022-09-15T05:01:48.718Z,18.25
2022-09-15T05:04:43.067Z,18.07
2022-09-15T05:07:31.539Z,18.25
2022-09-15T05:10:19.886Z,18.29
2022-09-15T05:13:08.146Z,18.33
2022-09-15T05:15:57.976Z,17.97
2022-09-15T05:18:57.613Z,18.24
2022-09-15T05:21:45.891Z,18.49
2022-09-15T05:24:43.372Z,18.58
2022-09-15T05:27:32.831Z,18.77
2022-09-15T05:30:38.037Z,18.37
2022-09-15T05:33:29.361Z,18.45
2022-09-15T05:36:27.085Z,18.34
2022-09-15T05:39:15.522Z,18.68
2022-09-15T05:42:04.079Z,18.71
2022-09-15T05:44:58.518Z,18.95
2022-09-15T05:47:46.917Z,18.47
2022-09-15T05:50:50.397Z,18.91
2022-09-15T05:53:38.856Z,18.62
2022-09-15T05:56:33.244Z,18.98
2022-09-15T05:59:21.538Z,18.94
2022-09-15T06:02:16.121Z,19.38
2022-09-15T06:05:04.536Z,19.54
2022-09-15T06:07:55.150Z,19.56
2022-09-15T06:10:43.772Z,19.40
2022-09-15T06:13:32.284Z,19.76
2022-09-15T06:16:23.371Z,19.96
2022-09-15T06:19:11.708Z,20.01
2022-09-15T06:22:08.894Z,20.12
2022-09-15T06:24:58.537Z,19.73
2022-09-15T06:27:55.602Z,19.50
2022-09-15T06:30:48.966Z,19.64
2022-09-15T06:33:37.393Z,19.54
2022-09-15T06:36:31.154Z,19.54
2022-09-15T06:39:19.440Z,19.71
2022-09-15T06:42:10.341Z,19.39
2022-09-15T06:45:04.414Z,19.51
2022-09-15T06:48:23.595Z,19.99
2022-09-15T06:51:12.758Z,19.80
2022-09-15T06:54:00.966Z,20.23
2022-09-15T06:56:55.481Z,20.21
2022-09-15T06:59:45.156Z,20.16
2022-09-15T07:02:39.655Z,20.19
2022-09-15T07:05:28.527Z,19.91
2022-09-15T07:08:22.987Z,19.99
2022-09-15T07:11:11.664Z,19.88
2022-09-15T07:14:06.229Z,19.23
2022-09-15T07:16:55.948Z,19.75
2022-09-15T07:19:45.399Z,19.64
2022-09-15T07:22:33.797Z,19.46
2022-09-15T07:25:22.290Z,18.35
2022-09-15T07:28:11.160Z,18.74
2022-09-15T07:30:59.493Z,17.19
2022-09-15T07:33:49.811Z,17.21
2022-09-15T07:36:38.553Z,17.87
2022-09-15T07:39:26.967Z,17.57
2022-09-15T07:42:15.591Z,17.22
2022-09-15T07:45:05.593Z,17.30
2022-09-15T07:47:54.611Z,16.82
2022-09-15T07:50:47.913Z,17.58
2022-09-15T07:53:36.383Z,16.90
2022-09-15T07:56:25.274Z,17.57
2022-09-15T07:59:13.696Z,17.43
2022-09-15T08:02:02.083Z,17.14
2022-09-15T08:04:58.076Z,17.13
2022-09-15T08:07:47.862Z,17.16
2022-09-15T08:10:39.161Z,16.89
2022-09-15T08:13:27.559Z,17.47
2022-09-15T08:16:18.095Z,17.76
2022-09-15T08:19:06.617Z,17.75
2022-09-15T08:22:01.809Z,17.75
2022-09-15T08:24:51.505Z,17.49
2022-09-15T08:27:39.990Z,17.85
2022-09-15T08:30:29.058Z,17.43
2022-09-15T08:33:17.461Z,16.99
2022-09-15T08:36:08.227Z,17.33
2022-09-15T08:38:57.021Z,17.55
2022-09-15T08:41:49.347Z,17.43
2022-09-15T08:44:44.369Z,17.09
2022-09-15T08:47:37.352Z,16.77
2022-09-15T08:50:30.034Z,16.71
2022-09-15T08:53:23.711Z,17.07
2022-09-15T08:56:17.153Z,17.46
2022-09-15T08:59:06.889Z,17.72
2022-09-15T09:02:29.598Z,17.62
2022-09-15T09:05:37.074Z,17.65
2022-09-15T09:08:42.034Z,17.81
2022-09-15T09:11:43.853Z,18.12
2022-09-15T09:14:44.831Z,17.94
2022-09-15T09:17:47.230Z,17.97
2022-09-15T09:20:50.041Z,17.86
2022-09-15T09:23:44.286Z,18.46
2022-09-15T09:26:35.866Z,18.54
2022-09-15T09:29:31.862Z,18.39
2022-09-15T09:32:24.673Z,18.47
2022-09-15T09:35:21.704Z,19.36
2022-09-15T09:38:11.234Z,19.41
2022-09-15T09:41:02.576Z,19.40
2022-09-15T09:43:53.459Z,19.24
2022-09-15T09:46:42.480Z,19.55
2022-09-15T09:49:44.377Z,19.88
2022-09-15T09:52:37.336Z,19.33
2022-09-15T09:55:27.929Z,18.96
2022-09-15T09:58:20.905Z,19.83
2022-09-15T10:01:11.945Z,18.84
2022-09-15T10:04:19.188Z,19.01
2022-09-15T10:07:10.036Z,19.45
2022-09-15T10:10:00.942Z,19.17
2022-09-15T10:12:50.486Z,19.75
2022-09-15T10:15:45.171Z,19.23
2022-09-15T10:18:35.467Z,19.68
2022-09-15T10:21:29.670Z,19.62
2022-09-15T10:24:36.267Z,18.85
2022-09-15T10:27:31.678Z,18.66
2022-09-15T10:30:20.854Z,18.80
2022-09-15T10:33:20.924Z,18.51
2022-09-15T10:36:15.217Z,18.80
2022-09-15T10:39:12.051Z,18.38
2022-09-15T10:42:14.043Z,18.50
2022-09-15T10:45:16.067Z,18.59
2022-09-15T10:48:25.581Z,18.39
2022-09-15T10:51:33.542Z,18.75
2022-09-15T10:54:45.487Z,18.52
2022-09-15T10:57:55.509Z,18.86
2022-09-15T11:00:56.203Z,18.29
2022-09-15T11:04:30.510Z,18.04
2022-09-15T11:07:30.392Z,18.33
2022-09-15T11:10:27.023Z,18.77
2022-09-15T11:13:27.371Z,18.78
2022-09-15T11:16:29.509Z,18.85
2022-09-15T11:19:33.794Z,18.59
2022-09-15T11:22:27.265Z,18.63
2022-09-15T11:25:20.703Z,18.14
2022-09-15T11:28:19.221Z,18.63
2022-09-15T11:31:16.513Z,18.84
2022-09-15T11:34:12.761Z,19.28
2022-09-15T11:37:07.307Z,20.02
2022-09-15T11:40:01.101Z,19.94
2022-09-15T11:42:54.555Z,19.92
2022-09-15T11:45:49.802Z,20.31
2022-09-15T11:48:46.197Z,20.73
2022-09-15T11:51:41.771Z,20.91
2022-09-15T11:54:37.555Z,21.27
2022-09-15T11:57:31.745Z,21.23
2022-09-15T12:00:21.664Z,21.37
2022-09-15T12:03:19.367Z,21.41
2022-09-15T12:06:16.301Z,20.17
2022-09-15T12:09:06.773Z,20.92
2022-09-15T12:11:59.621Z,20.67
2022-09-15T12:14:50.393Z,20.43
2022-09-15T12:17:46.560Z,21.27
2022-09-15T12:20:40.874Z,20.52
2022-09-15T12:23:35.098Z,19.92
2022-09-15T12:26:26.239Z,19.83
2022-09-15T12:29:42.483Z,19.84
2022-09-15T12:32:33.292Z,20.22
2022-09-15T12:35:33.313Z,20.32
2022-09-15T12:38:24.288Z,20.84
2022-09-15T12:41:14.258Z,20.09
2022-09-15T12:44:21.140Z,20.49
2022-09-15T12:47:21.983Z,20.18
2022-09-15T12:50:25.298Z,20.61
2022-09-15T12:53:20.266Z,21.10
2022-09-15T12:56:12.050Z,21.22
2022-09-15T12:59:08.078Z,21.13
2022-09-15T13:01:57.683Z,21.08
2022-09-15T13:04:55.501Z,21.13
2022-09-15T13:08:01.648Z,21.63
2022-09-15T13:11:02.995Z,21.58
2022-09-15T13:13:54.471Z,21.36
2022-09-15T13:16:51.822Z,21.31
2022-09-15T13:19:46.751Z,21.44
2022-09-15T13:22:38.511Z,21.30
2022-09-15T13:25:30.364Z,21.64
2022-09-15T13:28:19.017Z,21.79
2022-09-15T13:31:22.172Z,22.24
2022-09-15T13:35:04.317Z,22.20
2022-09-15T13:38:26.473Z,21.86
2022-09-15T13:41:46.265Z,21.83
2022-09-15T13:45:17.566Z,21.91
2022-09-15T13:48:24.172Z,21.22
2022-09-15T13:51:20.672Z,21.74
2022-09-15T13:54:18.972Z,21.58
2022-09-15T13:57:07.328Z,22.07
2022-09-15T13:59:58.504Z,22.11
2022-09-15T14:02:49.928Z,22.31
2022-09-15T14:05:38.666Z,22.54
2022-09-15T14:08:35.053Z,22.43
2022-09-15T14:11:27.704Z,22.36
2022-09-15T14:14:35.586Z,21.29
2022-09-15T14:17:25.438Z,21.48
2022-09-15T14:20:26.171Z,22.09
2022-09-15T14:23:17.387Z,22.31
2022-09-15T14:26:14.857Z,22.29
2022-09-15T14:29:05.573Z,22.01
2022-09-15T14:31:55.096Z,21.94
2022-09-15T14:34:54.218Z,21.35
2022-09-15T14:37:42.539Z,21.84
2022-09-15T14:40:33.646Z,22.01
2022-09-15T14:43:33.117Z,22.08
2022-09-15T14:46:21.477Z,22.08
2022-09-15T14:49:16.829Z,22.22
2022-09-15T14:52:05.594Z,22.08
2022-09-15T14:55:04.999Z,22.00
2022-09-15T14:57:58.693Z,21.25
2022-09-15T15:01:13.745Z,21.18
2022-09-15T15:04:17.060Z,21.23
2022-09-15T15:07:15.058Z,21.51
2022-09-15T15:10:07.168Z,21.54
2022-09-15T15:12:59.860Z,21.55
2022-09-15T15:15:48.744Z,21.62
2022-09-15T15:18:43.330Z,21.36
2022-09-15T15:21:37.677Z,21.33
2022-09-15T15:24:26.182Z,21.49
2022-09-15T15:27:41.876Z,21.25
2022-09-15T15:30:36.309Z,21.35
2022-09-15T15:33:28.536Z,21.20
2022-09-15T15:36:22.813Z,20.88
2022-09-15T15:39:25.599Z,21.13
2022-09-15T15:42:16.773Z,20.91
2022-09-15T15:45:23.781Z,20.24
2022-09-15T15:48:12.111Z,20.48
2022-09-15T15:51:09.781Z,20.52
2022-09-15T15:53:59.604Z,20.24
2022-09-15T15:56:56.822Z,19.70
2022-09-15T15:59:48.175Z,19.58
2022-09-15T16:02:36.831Z,19.33
2022-09-15T16:05:31.560Z,19.43
2022-09-15T16:08:25.638Z,19.58
2022-09-15T16:11:17.075Z,19.66
2022-09-15T16:14:05.456Z,19.26
2022-09-15T16:16:59.937Z,19.31
2022-09-15T16:19:48.868Z,18.74
2022-09-15T16:22:43.692Z,18.73
2022-09-15T16:25:43.031Z,19.19
2022-09-15T16:28:33.132Z,19.09
2022-09-15T16:31:30.447Z,18.79
2022-09-15T16:34:19.548Z,18.84
2022-09-15T16:37:16.947Z,18.72
2022-09-15T16:40:06.606Z,18.70
2022-09-15T16:43:01.591Z,18.42
2022-09-15T16:45:52.675Z,18.27
2022-09-15T16:48:42.838Z,18.44
2022-09-15T16:51:40.121Z,18.34
2022-09-15T16:54:28.605Z,18.59
2022-09-15T16:57:25.845Z,18.23
2022-09-15T17:00:15.529Z,18.31
2022-09-15T17:03:18.273Z,18.26
2022-09-15T17:06:07.479Z,18.61
2022-09-15T17:08:55.772Z,18.38
2022-09-15T17:11:44.015Z,18.77
2022-09-15T17:14:32.275Z,18.83
2022-09-15T17:17:26.708Z,18.28
2022-09-15T17:20:17.868Z,18.84
2022-09-15T17:23:17.469Z,18.44
2022-09-15T17:26:07.882Z,17.73
2022-09-15T17:29:02.298Z,17.26
2022-09-15T17:31:50.680Z,17.48
2022-09-15T17:34:45.126Z,17.33
2022-09-15T17:37:35.086Z,17.46
2022-09-15T17:40:30.455Z,17.21
2022-09-15T17:43:20.591Z,17.15
2022-09-15T17:46:09.166Z,17.58
2022-09-15T17:48:57.697Z,17.74
2022-09-15T17:51:46.098Z,17.74
2022-09-15T17:54:45.271Z,17.74
2022-09-15T17:57:33.574Z,17.78
2022-09-15T18:00:33.462Z,17.66
2022-09-15T18:03:27.025Z,17.45
2022-09-15T18:06:15.447Z,17.66
2022-09-15T18:09:09.997Z,17.06
2022-09-15T18:12:00.200Z,17.31
2022-09-15T18:14:54.335Z,17.06
2022-09-15T18:17:43.613Z,17.23
2022-09-15T18:20:34.166Z,17.37
2022-09-15T18:23:24.739Z,17.14
2022-09-15T18:26:13.122Z,17.11
2022-09-15T18:29:03.610Z,16.75
2022-09-15T18:31:53.187Z,16.50
2022-09-15T18:34:41.686Z,17.10
2022-09-15T18:37:36.968Z,17.50
2022-09-15T18:40:26.456Z,17.60
2022-09-15T18:43:26.576Z,17.47
2022-09-15T18:46:17.523Z,16.95
2022-09-15T18:49:09.598Z,16.85
2022-09-15T18:51:59.346Z,16.85
2022-09-15T18:54:54.173Z,16.49
2022-09-15T18:57:43.119Z,16.26
2022-09-15T19:00:37.740Z,15.95
2022-09-15T19:03:27.556Z,15.77
2022-09-15T19:06:22.271Z,15.96
2022-09-15T19:09:11.091Z,16.35
2022-09-15T19:11:59.410Z,16.61
2022-09-15T19:14:48.506Z,16.49
2022-09-15T19:17:38.371Z,16.60
2022-09-15T19:20:28.067Z,16.77
2022-09-15T19:23:22.180Z,16.88
2022-09-15T19:26:13.921Z,16.11
2022-09-15T19:29:03.387Z,16.30
2022-09-15T19:32:00.748Z,15.95
2022-09-15T19:34:49.395Z,16.43
2022-09-15T19:37:48.776Z,15.95
2022-09-15T19:40:37.157Z,16.24
2022-09-15T19:43:25.625Z,15.62
2022-09-15T19:46:15.382Z,15.64
2022-09-15T19:49:04.484Z,15.72
2022-09-15T19:51:55.608Z,15.57
2022-09-15T19:54:54.332Z,15.81
2022-09-15T19:57:43.688Z,16.15
2022-09-15T20:00:40.959Z,16.03
2022-09-15T20:03:30.155Z,15.50
2022-09-15T20:06:19.066Z,15.78
2022-09-15T20:09:08.806Z,15.80
2022-09-15T20:12:03.771Z,15.73
2022-09-15T20:14:53.407Z,15.69
2022-09-15T20:17:51.762Z,15.86
2022-09-15T20:20:41.832Z,16.35
2022-09-15T20:23:36.859Z,16.10
2022-09-15T20:26:26.756Z,15.98
2022-09-15T20:29:19.010Z,16.36
2022-09-15T20:32:07.773Z,15.79
2022-09-15T20:34:57.410Z,15.87
2022-09-15T20:37:46.626Z,15.56
2022-09-15T20:40:35.397Z,15.90
2022-09-15T20:43:33.363Z,15.77
2022-09-15T20:46:24.735Z,16.10
2022-09-15T20:49:14.393Z,15.89
2022-09-15T20:52:03.877Z,16.14
2022-09-15T20:54:53.002Z,16.48
2022-09-15T20:57:41.740Z,15.72
2022-09-15T21:00:33.803Z,15.83
2022-09-15T21:03:24.427Z,15.40
2022-09-15T21:06:24.191Z,15.17
2022-09-15T21:09:12.819Z,15.44
2022-09-15T21:12:10.617Z,15.91
2022-09-15T21:14:59.323Z,15.82
2022-09-15T21:17:47.993Z,15.43
2022-09-15T21:20:38.283Z,15.16
2022-09-15T21:23:37.953Z,15.43
2022-09-15T21:26:28.055Z,15.62
2022-09-15T21:29:26.507Z,15.60
2022-09-15T21:32:15.304Z,15.58
2022-09-15T21:35:12.884Z,15.30
2022-09-15T21:38:02.943Z,15.38
2022-09-15T21:40:51.571Z,15.54
2022-09-15T21:43:50.355Z,15.33
2022-09-15T21:46:39.003Z,15.71
2022-09-15T21:49:27.650Z,15.41
2022-09-15T21:52:16.275Z,15.20
2022-09-15T21:55:15.515Z,15.08
2022-09-15T21:58:04.238Z,15.24
2022-09-15T22:01:10.872Z,15.62
2022-09-15T22:04:01.488Z,15.21
2022-09-15T22:06:50.398Z,15.21
2022-09-15T22:09:44.855Z,14.83
2022-09-15T22:12:34.940Z,15.35
2022-09-15T22:15:29.876Z,15.08
2022-09-15T22:18:18.632Z,15.28
2022-09-15T22:21:09.954Z,15.19
2022-09-15T22:23:59.735Z,15.16
2022-09-15T22:26:54.607Z,15.14
2022-09-15T22:29:44.710Z,15.22
2022-09-15T22:32:39.877Z,15.12
2022-09-15T22:35:28.628Z,15.17
2022-09-15T22:38:17.350Z,14.86
2022-09-15T22:41:07.288Z,15.13
2022-09-15T22:44:05.855Z,15.39
2022-09-15T22:46:57.781Z,15.08
2022-09-15T22:49:46.506Z,14.91
2022-09-15T22:52:41.083Z,15.36
2022-09-15T22:55:31.470Z,15.29
2022-09-15T22:58:26.012Z,15.51
2022-09-15T23:01:17.017Z,14.85
2022-09-15T23:04:06.787Z,14.66
2022-09-15T23:07:04.497Z,14.75
2022-09-15T23:09:52.825Z,14.67
2022-09-15T23:12:50.091Z,14.94
2022-09-15T23:15:38.337Z,14.62
2022-09-15T23:18:35.820Z,15.20
2022-09-15T23:21:26.029Z,15.14
2022-09-15T23:24:23.989Z,15.10
2022-09-15T23:27:12.283Z,15.04
2022-09-15T23:30:10.724Z,15.06
2022-09-15T23:32:59.001Z,15.60
2022-09-15T23:35:56.365Z,15.04
2022-09-15T23:38:47.153Z,14.86
2022-09-15T23:41:36.856Z,14.41
2022-09-15T23:44:33.868Z,14.67
2022-09-15T23:47:22.205Z,14.71
2022-09-15T23:50:19.555Z,14.48
2022-09-15T23:53:08.159Z,14.55
2022-09-15T23:56:07.571Z,14.61
2022-09-15T23:58:55.951Z,14.31
